createdAt,value
2023-03-29T00:04:07.415Z,5.9
2023-03-29T00:19:03.686Z,5.89
2023-03-29T00:34:00.009Z,5.8
2023-03-29T00:48:55.757Z,5.68
2023-03-29T01:03:51.354Z,5.58
2023-03-29T01:18:47.335Z,5.59
2023-03-29T01:33:43.819Z,5.82
2023-03-29T01:48:40.606Z,5.86
2023-03-29T02:03:37.183Z,5.98
2023-03-29T02:18:33.485Z,6.08
2023-03-29T02:33:30.268Z,6.22
2023-03-29T02:48:26.553Z,6.28
2023-03-29T03:18:18.829Z,6.44
2023-03-29T03:33:15.110Z,6.16
2023-03-29T03:48:11.448Z,6.49
2023-03-29T04:03:07.460Z,6.38
2023-03-29T04:18:03.294Z,6.46
2023-03-29T04:32:59.649Z,6.41
2023-03-29T04:47:56.151Z,6.39
2023-03-29T05:02:52.104Z,6.45
2023-03-29T05:17:48.039Z,6.43
2023-03-29T05:32:44.683Z,6.55
2023-03-29T05:47:40.818Z,6.69
2023-03-29T06:02:36.718Z,6.93
2023-03-29T06:17:32.761Z,7.04
2023-03-29T06:32:28.338Z,7.16
2023-03-29T06:47:25.161Z,7.23
2023-03-29T07:02:21.126Z,7.49
2023-03-29T07:17:18.032Z,7.7
2023-03-29T07:32:14.696Z,8.04
2023-03-29T07:47:10.973Z,8.44
2023-03-29T08:02:07.267Z,8.99
2023-03-29T08:17:04.488Z,9.4
2023-03-29T08:32:00.796Z,9.83
2023-03-29T08:46:57.469Z,9.83
2023-03-29T09:01:53.852Z,10.37
2023-03-29T09:16:50.568Z,10.46
2023-03-29T09:31:46.964Z,10.71
2023-03-29T09:46:43.327Z,11.62
2023-03-29T10:01:40.174Z,11.59
2023-03-29T10:16:36.863Z,12.27
2023-03-29T10:31:33.413Z,13.12
2023-03-29T10:46:29.886Z,13.83
2023-03-29T11:01:26.683Z,13.98
2023-03-29T11:16:23.394Z,14.58
2023-03-29T11:31:19.958Z,15.69
2023-03-29T11:46:17.290Z,17.18
2023-03-29T12:01:14.257Z,17.57
2023-03-29T12:16:11.296Z,17.22
2023-03-29T12:31:07.375Z,17.29
2023-03-29T12:46:03.832Z,16.81
2023-03-29T13:00:59.681Z,17.44
2023-03-29T13:15:56.592Z,17.24
2023-03-29T13:30:53.149Z,17.4
2023-03-29T13:45:48.986Z,17.1
2023-03-29T14:00:45.025Z,16.19
2023-03-29T14:15:40.962Z,16.4
2023-03-29T14:30:37.309Z,17.31
2023-03-29T14:45:34.208Z,17.06
2023-03-29T15:00:30.290Z,17.24
2023-03-29T15:15:26.581Z,16.92
2023-03-29T15:30:21.617Z,16.87
2023-03-29T15:45:17.678Z,17.04
2023-03-29T16:00:13.907Z,16.94
2023-03-29T16:15:09.740Z,16.82
2023-03-29T16:30:05.284Z,16.56
2023-03-29T16:45:01.757Z,16.15
2023-03-29T16:59:57.681Z,15.93
2023-03-29T17:14:53.919Z,15.83
2023-03-29T17:29:49.992Z,15.41
2023-03-29T17:44:45.517Z,15.19
2023-03-29T17:59:41.435Z,14.77
2023-03-29T18:14:37.505Z,14.64
2023-03-29T18:29:33.112Z,14.49
2023-03-29T18:44:29.205Z,14.39
2023-03-29T18:59:25.600Z,14.47
2023-03-29T19:14:21.815Z,14.51
2023-03-29T19:29:18.288Z,14.44
2023-03-29T19:44:14.253Z,14.25
2023-03-29T19:59:10.202Z,14.14
2023-03-29T20:14:06.466Z,14.17
2023-03-29T20:29:02.406Z,14.17
2023-03-29T20:43:58.666Z,14.03
2023-03-29T20:58:54.752Z,14.32
2023-03-29T21:13:51.120Z,14.68
2023-03-29T21:28:47.223Z,14.78
2023-03-29T21:43:43.660Z,14.46
2023-03-29T21:58:39.591Z,13.77
2023-03-29T22:13:36.049Z,12.77
2023-03-29T22:28:32.042Z,12.51
2023-03-29T22:43:27.524Z,12.34
2023-03-29T22:58:23.463Z,12.6
2023-03-29T23:13:19.774Z,12.54
2023-03-29T23:28:16.065Z,12.52
2023-03-29T23:43:12.298Z,12.64
2023-03-29T23:58:08.320Z,12.31
